createdAt,value
2017-09-28T00:01:00.084Z,0
2017-09-28T00:02:09.100Z,0
2017-09-28T00:03:17.804Z,0
2017-09-28T00:04:26.829Z,0
2017-09-28T00:05:36.169Z,0
2017-09-28T00:06:44.863Z,0
2017-09-28T00:07:54.514Z,0
2017-09-28T00:09:03.208Z,0
2017-09-28T00:10:11.902Z,0
2017-09-28T00:11:20.927Z,0
2017-09-28T00:12:29.940Z,0
2017-09-28T00:13:38.957Z,0
2017-09-28T00:14:47.651Z,0
2017-09-28T00:15:56.668Z,0
2017-09-28T00:17:06.001Z,0
2017-09-28T00:18:15.337Z,0
2017-09-28T00:19:24.674Z,0
2017-09-28T00:20:33.689Z,0
2017-09-28T00:21:43.021Z,0
2017-09-28T00:22:52.358Z,0
2017-09-28T00:24:01.055Z,0
2017-09-28T00:25:09.748Z,0
2017-09-28T00:26:19.086Z,0
2017-09-28T00:27:28.103Z,0
2017-09-28T00:28:36.796Z,0
2017-09-28T00:29:46.452Z,0
2017-09-28T00:30:55.466Z,0
2017-09-28T00:32:04.482Z,0
2017-09-28T00:33:13.179Z,0
2017-09-28T00:34:22.837Z,0
2017-09-28T00:35:32.175Z,0
2017-09-28T00:36:41.834Z,0
2017-09-28T00:37:51.169Z,0
2017-09-28T00:39:00.502Z,0
2017-09-28T00:40:10.154Z,0
2017-09-28T00:41:19.173Z,0
2017-09-28T00:42:28.187Z,0
2017-09-28T00:43:37.532Z,0
2017-09-28T00:44:46.869Z,0
2017-09-28T00:45:55.566Z,0
2017-09-28T00:47:04.581Z,0
2017-09-28T00:48:13.917Z,0
2017-09-28T00:49:22.614Z,0
2017-09-28T00:50:31.630Z,0
2017-09-28T00:51:40.972Z,0
2017-09-28T00:52:49.984Z,0
2017-09-28T00:53:58.681Z,0
2017-09-28T00:55:07.701Z,0
2017-09-28T00:56:17.037Z,0
2017-09-28T00:57:25.732Z,0
2017-09-28T00:58:34.750Z,0
2017-09-28T00:59:43.777Z,0
2017-09-28T01:00:53.112Z,0
2017-09-28T01:02:02.448Z,0
2017-09-28T01:03:11.462Z,0
2017-09-28T01:04:20.161Z,0
2017-09-28T01:05:29.501Z,0
2017-09-28T01:06:39.481Z,0
2017-09-28T01:07:48.814Z,0
2017-09-28T01:08:57.830Z,0
2017-09-28T01:10:07.489Z,0
2017-09-28T02:46:57.778Z,0
2017-09-28T02:48:06.794Z,0
2017-09-28T02:49:15.821Z,0
2017-09-28T02:50:25.474Z,0
2017-09-28T02:51:34.487Z,0
2017-09-28T02:52:43.505Z,0
2017-09-28T02:53:53.159Z,0
2017-09-28T02:55:02.497Z,0
2017-09-28T02:56:11.524Z,0
2017-09-28T02:57:20.546Z,0
2017-09-28T02:58:29.884Z,0
2017-09-28T02:59:38.899Z,0
2017-09-28T03:00:48.235Z,0
2017-09-28T03:01:56.931Z,0
2017-09-28T03:03:05.947Z,0
2017-09-28T03:04:14.645Z,0
2017-09-28T03:05:23.345Z,0
2017-09-28T03:06:32.680Z,0
2017-09-28T03:07:42.015Z,0
2017-09-28T03:08:50.709Z,0
2017-09-28T03:10:00.362Z,0
2017-09-28T03:11:09.697Z,0
2017-09-28T03:12:18.393Z,0
2017-09-28T03:13:27.406Z,0
2017-09-28T03:14:37.060Z,0
2017-09-28T03:15:45.752Z,0
2017-09-28T03:16:54.763Z,0
2017-09-28T03:18:03.458Z,0
2017-09-28T03:19:12.152Z,0
2017-09-28T03:20:21.488Z,0
2017-09-28T03:21:31.143Z,0
2017-09-28T03:22:40.473Z,0
2017-09-28T03:23:49.490Z,0
2017-09-28T03:24:58.824Z,0
2017-09-28T03:26:07.517Z,0
2017-09-28T03:27:17.171Z,0
2017-09-28T03:28:25.866Z,0
2017-09-28T03:29:35.517Z,0
2017-09-28T03:30:44.531Z,0
2017-09-28T03:31:53.540Z,0
2017-09-28T03:33:02.879Z,0
2017-09-28T03:34:11.892Z,0
2017-09-28T03:35:21.233Z,0
2017-09-28T03:36:29.926Z,0
2017-09-28T03:37:38.941Z,0
2017-09-28T03:38:47.961Z,0
2017-09-28T03:39:56.976Z,0
2017-09-28T03:41:05.674Z,0
2017-09-28T03:42:15.005Z,0
2017-09-28T03:43:24.024Z,0
2017-09-28T03:44:33.356Z,0
2017-09-28T03:45:42.379Z,0
2017-09-28T03:46:51.076Z,0
2017-09-28T03:48:00.087Z,0
2017-09-28T03:49:09.101Z,0
2017-09-28T03:50:18.434Z,0
2017-09-28T03:51:28.083Z,0
2017-09-28T03:52:37.420Z,0
2017-09-28T03:53:46.114Z,0
2017-09-28T03:54:54.806Z,0
2017-09-28T03:56:03.503Z,0
2017-09-28T03:57:12.519Z,0
2017-09-28T03:58:21.210Z,0
2017-09-28T03:59:30.230Z,0
2017-09-28T04:00:39.244Z,0
2017-09-28T04:01:47.940Z,0
2017-09-28T04:02:56.960Z,0
2017-09-28T04:04:05.652Z,0
2017-09-28T04:05:15.323Z,0
2017-09-28T04:06:24.341Z,0
2017-09-28T04:07:33.682Z,0
2017-09-28T04:08:42.696Z,0
2017-09-28T04:09:51.391Z,0
2017-09-28T04:11:00.726Z,0
2017-09-28T04:12:09.737Z,0
2017-09-28T04:13:19.069Z,0
2017-09-28T04:14:28.084Z,0
2017-09-28T04:15:37.099Z,0
2017-09-28T04:16:45.798Z,0
2017-09-28T04:17:54.822Z,0
2017-09-28T04:19:03.520Z,0
2017-09-28T04:20:12.214Z,0
2017-09-28T04:21:21.231Z,0
2017-09-28T04:22:30.570Z,0
2017-09-28T04:23:39.905Z,0
2017-09-28T04:24:49.242Z,0
2017-09-28T04:25:58.259Z,0
2017-09-28T04:27:07.280Z,0
2017-09-28T04:28:16.291Z,0
2017-09-28T04:29:25.305Z,0
2017-09-28T04:30:33.996Z,0
2017-09-28T04:31:43.010Z,0
2017-09-28T04:32:52.348Z,0
2017-09-28T04:34:01.362Z,0
2017-09-28T04:35:10.053Z,0
2017-09-28T04:36:19.065Z,0
2017-09-28T04:37:28.081Z,0
2017-09-28T04:38:37.419Z,0
2017-09-28T04:39:47.394Z,0
2017-09-28T04:40:56.726Z,0
2017-09-28T04:42:05.420Z,0
2017-09-28T04:43:14.433Z,0
2017-09-28T04:44:23.133Z,0
2017-09-28T04:45:32.148Z,0
2017-09-28T04:46:40.842Z,0
2017-09-28T04:47:50.517Z,0
2017-09-28T04:48:59.533Z,0
2017-09-28T04:50:08.548Z,0
2017-09-28T04:51:17.578Z,0
2017-09-28T04:52:26.293Z,0
2017-09-28T04:53:34.989Z,0
2017-09-28T04:54:44.006Z,0
2017-09-28T04:55:53.018Z,0
2017-09-28T04:57:02.357Z,0
2017-09-28T04:58:11.053Z,0
2017-09-28T04:59:20.388Z,0
2017-09-28T05:00:29.082Z,0
2017-09-28T05:01:38.096Z,0
2017-09-28T05:02:48.070Z,0
2017-09-28T05:03:57.408Z,0
2017-09-28T05:05:06.103Z,0
2017-09-28T05:06:15.440Z,0
2017-09-28T05:07:24.776Z,0
2017-09-28T05:08:33.787Z,0
2017-09-28T05:09:43.122Z,0
2017-09-28T05:10:52.824Z,0
2017-09-28T05:12:01.515Z,0
2017-09-28T05:13:11.191Z,0
2017-09-28T05:14:20.202Z,0
2017-09-28T05:15:29.537Z,0
2017-09-28T05:16:38.553Z,0
2017-09-28T05:17:47.894Z,0
2017-09-28T05:18:57.552Z,0
2017-09-28T05:20:06.886Z,0
2017-09-28T05:21:16.218Z,0
2017-09-28T05:22:24.914Z,0
2017-09-28T05:23:33.612Z,0
2017-09-28T05:24:42.306Z,0
2017-09-28T05:25:51.641Z,0
2017-09-28T05:27:00.336Z,0
2017-09-28T05:28:09.674Z,0
2017-09-28T05:29:19.009Z,0
2017-09-28T05:30:28.342Z,0
2017-09-28T05:31:38.322Z,0
2017-09-28T05:32:47.334Z,0
2017-09-28T05:33:56.672Z,0
2017-09-28T05:35:06.335Z,0
2017-09-28T05:36:15.035Z,0
2017-09-28T05:37:24.370Z,0
2017-09-28T05:38:33.391Z,0
2017-09-28T05:39:42.730Z,0
2017-09-28T05:40:52.067Z,0
2017-09-28T05:42:01.077Z,0
2017-09-28T05:43:10.413Z,0
2017-09-28T05:44:20.069Z,0
2017-09-28T05:45:29.080Z,0
2017-09-28T05:46:38.100Z,0
2017-09-28T05:47:47.755Z,0
2017-09-28T05:48:57.094Z,0
2017-09-28T05:50:05.793Z,0
2017-09-28T05:51:15.448Z,0
2017-09-28T05:52:24.463Z,0
2017-09-28T05:53:33.157Z,0
2017-09-28T05:54:42.509Z,0
2017-09-28T05:55:51.202Z,0
2017-09-28T05:57:00.538Z,0
2017-09-28T05:58:09.236Z,5
2017-09-28T05:59:17.934Z,5
2017-09-28T06:00:26.953Z,5
2017-09-28T06:01:36.285Z,5
2017-09-28T06:02:46.281Z,5
2017-09-28T06:03:54.974Z,5
2017-09-28T06:05:03.991Z,5
2017-09-28T06:06:13.003Z,5
2017-09-28T06:07:22.016Z,5
2017-09-28T06:08:31.035Z,5
2017-09-28T06:09:39.728Z,5
2017-09-28T06:10:48.419Z,5
2017-09-28T06:11:57.433Z,5
2017-09-28T06:13:06.449Z,5
2017-09-28T06:14:15.469Z,5
2017-09-28T06:15:25.126Z,5
2017-09-28T06:16:34.467Z,5
2017-09-28T06:17:43.810Z,5
2017-09-28T06:18:53.145Z,5
2017-09-28T06:20:02.483Z,5
2017-09-28T06:21:11.496Z,5
2017-09-28T06:22:20.194Z,5
2017-09-28T06:23:29.534Z,5
2017-09-28T06:24:39.187Z,5
2017-09-28T06:25:48.526Z,5
2017-09-28T06:26:57.226Z,5
2017-09-28T06:28:06.591Z,5
2017-09-28T06:29:15.607Z,5
2017-09-28T06:30:24.964Z,5
2017-09-28T06:31:33.661Z,5
2017-09-28T06:32:42.996Z,5
2017-09-28T06:33:51.690Z,5
2017-09-28T06:35:00.383Z,5
2017-09-28T06:36:09.716Z,5
2017-09-28T06:37:19.385Z,5
2017-09-28T06:38:28.078Z,5
2017-09-28T06:39:37.761Z,5
2017-09-28T06:40:46.770Z,5
2017-09-28T06:41:55.783Z,5
2017-09-28T06:43:05.131Z,5
2017-09-28T06:44:14.145Z,5
2017-09-28T06:45:23.482Z,5
2017-09-28T06:46:32.826Z,5
2017-09-28T06:47:41.840Z,5
2017-09-28T06:48:50.856Z,10
2017-09-28T06:50:00.184Z,10
2017-09-28T06:51:09.513Z,10
2017-09-28T06:52:18.559Z,10
2017-09-28T06:53:28.217Z,15
2017-09-28T06:54:36.909Z,15
2017-09-28T06:55:46.567Z,15
2017-09-28T06:56:55.580Z,15
2017-09-28T06:58:04.597Z,20
2017-09-28T06:59:13.612Z,20
2017-09-28T07:00:22.311Z,20
2017-09-28T07:01:31.640Z,25
2017-09-28T07:02:40.981Z,25
2017-09-28T07:03:49.999Z,25
2017-09-28T07:04:59.334Z,25
2017-09-28T07:06:08.033Z,25
2017-09-28T07:07:17.047Z,25
2017-09-28T07:08:26.062Z,25
2017-09-28T07:09:35.080Z,25
2017-09-28T07:10:44.095Z,25
2017-09-28T07:11:53.433Z,20
2017-09-28T07:13:02.767Z,25
2017-09-28T07:14:12.422Z,25
2017-09-28T07:15:21.432Z,20
2017-09-28T07:16:30.448Z,20
2017-09-28T07:17:39.786Z,20
2017-09-28T07:18:49.118Z,20
2017-09-28T07:19:58.135Z,15
2017-09-28T07:21:06.830Z,15
2017-09-28T07:22:16.163Z,10
2017-09-28T07:23:24.862Z,10
2017-09-28T07:24:33.553Z,10
2017-09-28T07:25:42.891Z,10
2017-09-28T07:26:52.235Z,10
2017-09-28T07:28:01.569Z,10
2017-09-28T07:29:10.586Z,10
2017-09-28T07:30:19.600Z,10
2017-09-28T07:31:28.617Z,10
2017-09-28T07:32:37.635Z,10
2017-09-28T07:33:46.653Z,10
2017-09-28T07:34:55.988Z,10
2017-09-28T07:36:04.999Z,10
2017-09-28T07:37:14.334Z,10
2017-09-28T07:38:23.348Z,10
2017-09-28T07:39:32.684Z,10
2017-09-28T07:40:41.381Z,10
2017-09-28T07:41:50.398Z,10
2017-09-28T07:42:59.733Z,10
2017-09-28T07:44:08.428Z,15
2017-09-28T07:45:18.084Z,15
2017-09-28T07:46:27.099Z,20
2017-09-28T07:47:36.431Z,25
2017-09-28T07:48:45.442Z,30
2017-09-28T07:49:54.456Z,30
2017-09-28T07:51:03.470Z,35
2017-09-28T07:52:12.164Z,40
2017-09-28T07:53:20.866Z,40
2017-09-28T07:54:30.204Z,45
2017-09-28T07:55:39.546Z,50
2017-09-28T07:56:48.886Z,55
2017-09-28T07:57:57.581Z,55
2017-09-28T07:59:06.593Z,50
2017-09-28T08:00:15.288Z,55
2017-09-28T08:01:24.305Z,60
2017-09-28T08:02:33.640Z,60
2017-09-28T08:03:42.975Z,55
2017-09-28T08:04:52.311Z,50
2017-09-28T08:06:01.005Z,45
2017-09-28T08:07:10.021Z,40
2017-09-28T08:08:19.687Z,40
2017-09-28T08:09:28.381Z,40
2017-09-28T08:10:37.396Z,45
2017-09-28T08:11:46.410Z,45
2017-09-28T08:12:55.424Z,50
2017-09-28T08:14:04.759Z,50
2017-09-28T08:15:14.414Z,55
2017-09-28T08:16:23.750Z,55
2017-09-28T08:17:33.086Z,55
2017-09-28T08:18:42.104Z,60
2017-09-28T08:19:51.758Z,65
2017-09-28T08:21:00.456Z,60
2017-09-28T08:22:10.431Z,60
2017-09-28T08:23:19.765Z,60
2017-09-28T08:24:29.097Z,60
2017-09-28T08:25:38.439Z,85
2017-09-28T08:26:47.457Z,60
2017-09-28T08:27:56.480Z,60
2017-09-28T08:29:05.499Z,60
2017-09-28T08:30:14.516Z,60
2017-09-28T08:31:24.489Z,60
2017-09-28T08:32:33.509Z,65
2017-09-28T08:33:42.207Z,70
2017-09-28T08:34:51.219Z,70
2017-09-28T08:36:00.239Z,65
2017-09-28T08:37:08.933Z,60
2017-09-28T08:38:18.267Z,60
2017-09-28T08:39:27.608Z,55
2017-09-28T08:40:36.953Z,50
2017-09-28T08:41:45.649Z,50
2017-09-28T08:42:54.984Z,50
2017-09-28T08:44:04.638Z,50
2017-09-28T08:45:13.973Z,50
2017-09-28T08:46:23.633Z,55
2017-09-28T08:47:32.962Z,50
2017-09-28T08:48:41.661Z,55
2017-09-28T08:49:51.317Z,60
2017-09-28T08:51:00.649Z,55
2017-09-28T08:52:09.670Z,55
2017-09-28T08:53:18.683Z,55
2017-09-28T08:54:28.025Z,55
2017-09-28T08:55:37.364Z,55
2017-09-28T08:56:46.697Z,55
2017-09-28T08:57:55.394Z,65
2017-09-28T08:59:04.407Z,75
2017-09-28T09:00:13.423Z,90
2017-09-28T09:01:22.119Z,100
2017-09-28T09:02:31.137Z,110
2017-09-28T09:03:40.471Z,110
2017-09-28T09:04:49.485Z,110
2017-09-28T09:05:58.498Z,105
2017-09-28T09:07:08.153Z,115
2017-09-28T09:08:17.493Z,130
2017-09-28T09:09:26.510Z,170
2017-09-28T09:10:35.852Z,175
2017-09-28T09:11:44.876Z,165
2017-09-28T09:12:53.599Z,120
2017-09-28T09:14:02.266Z,110
2017-09-28T09:15:11.281Z,120
2017-09-28T09:16:20.298Z,145
2017-09-28T09:17:29.956Z,135
2017-09-28T09:18:39.291Z,120
2017-09-28T09:19:47.990Z,110
2017-09-28T09:20:56.686Z,105
2017-09-28T09:22:05.695Z,100
2017-09-28T09:23:14.710Z,100
2017-09-28T09:24:23.406Z,100
2017-09-28T09:25:32.428Z,95
2017-09-28T09:26:41.446Z,80
2017-09-28T09:27:50.465Z,75
2017-09-28T09:29:00.117Z,75
2017-09-28T09:30:09.135Z,80
2017-09-28T09:31:18.465Z,85
2017-09-28T09:32:27.480Z,105
2017-09-28T09:33:36.811Z,80
2017-09-28T09:34:46.466Z,85
2017-09-28T09:35:55.485Z,100
2017-09-28T09:37:04.833Z,130
2017-09-28T09:38:13.849Z,130
2017-09-28T09:39:23.184Z,600
2017-09-28T09:40:31.886Z,190
2017-09-28T09:41:40.583Z,105
2017-09-28T09:42:49.601Z,105
2017-09-28T09:43:58.617Z,100
2017-09-28T09:45:07.639Z,110
2017-09-28T09:46:16.659Z,215
2017-09-28T09:47:25.677Z,195
2017-09-28T09:48:34.691Z,205
2017-09-28T09:49:44.024Z,120
2017-09-28T09:50:53.042Z,115
2017-09-28T09:52:02.063Z,145
2017-09-28T09:53:10.760Z,240
2017-09-28T09:54:19.457Z,195
2017-09-28T09:55:28.470Z,330
2017-09-28T09:56:37.486Z,215
2017-09-28T09:57:46.823Z,300
2017-09-28T09:58:55.838Z,195
2017-09-28T10:00:04.855Z,210
2017-09-28T10:01:14.188Z,285
2017-09-28T10:02:22.885Z,255
2017-09-28T10:03:32.539Z,260
2017-09-28T10:04:41.234Z,245
2017-09-28T10:05:50.887Z,715
2017-09-28T10:06:59.909Z,355
2017-09-28T10:08:08.930Z,190
2017-09-28T10:09:17.943Z,185
2017-09-28T10:10:26.963Z,180
2017-09-28T10:11:35.983Z,200
2017-09-28T10:12:45.002Z,195
2017-09-28T10:13:54.342Z,240
2017-09-28T10:15:03.044Z,355
2017-09-28T10:16:12.703Z,355
2017-09-28T10:17:21.731Z,345
2017-09-28T10:18:30.434Z,200
2017-09-28T10:19:39.129Z,215
2017-09-28T10:20:48.149Z,230
2017-09-28T10:21:56.847Z,255
2017-09-28T10:23:05.544Z,325
2017-09-28T10:24:14.563Z,470
2017-09-28T10:25:23.263Z,555
2017-09-28T10:26:32.917Z,410
2017-09-28T10:27:41.941Z,680
2017-09-28T10:28:50.640Z,415
2017-09-28T10:29:59.979Z,645
2017-09-28T10:31:09.000Z,335
2017-09-28T10:32:17.701Z,300
2017-09-28T10:33:26.405Z,305
2017-09-28T10:34:35.105Z,155
2017-09-28T10:35:44.438Z,175
2017-09-28T10:36:53.462Z,225
2017-09-28T10:38:02.800Z,220
2017-09-28T10:39:12.133Z,435
2017-09-28T10:40:20.830Z,445
2017-09-28T10:41:29.534Z,330
2017-09-28T10:42:38.554Z,635
2017-09-28T10:43:48.210Z,175
2017-09-28T10:44:57.237Z,220
2017-09-28T10:46:06.573Z,680
2017-09-28T10:47:15.912Z,615
2017-09-28T10:48:24.612Z,715
2017-09-28T10:49:33.946Z,535
2017-09-28T10:50:43.285Z,425
2017-09-28T10:51:52.627Z,260
2017-09-28T10:53:01.641Z,565
2017-09-28T10:54:10.656Z,460
2017-09-28T10:55:20.315Z,785
2017-09-28T10:56:29.648Z,765
2017-09-28T10:57:38.668Z,400
2017-09-28T10:58:48.010Z,225
2017-09-28T10:59:57.346Z,245
2017-09-28T11:01:06.366Z,415
2017-09-28T11:02:15.713Z,480
2017-09-28T11:03:25.368Z,535
2017-09-28T11:04:34.384Z,315
2017-09-28T11:05:43.722Z,130
2017-09-28T11:06:52.739Z,85
2017-09-28T11:08:01.439Z,55
2017-09-28T11:09:10.139Z,55
2017-09-28T11:10:18.839Z,65
2017-09-28T11:11:27.534Z,75
2017-09-28T11:12:36.872Z,75
2017-09-28T11:13:46.204Z,75
2017-09-28T11:14:54.905Z,70
2017-09-28T11:16:04.557Z,75
2017-09-28T11:17:13.895Z,55
2017-09-28T11:18:22.911Z,50
2017-09-28T11:19:32.251Z,45
2017-09-28T11:20:41.611Z,45
2017-09-28T11:21:50.631Z,40
2017-09-28T11:22:59.645Z,35
2017-09-28T11:24:08.982Z,35
2017-09-28T11:25:18.320Z,30
2017-09-28T11:26:27.334Z,35
2017-09-28T11:27:36.358Z,40
2017-09-28T11:28:45.057Z,45
2017-09-28T11:29:54.077Z,50
2017-09-28T11:31:03.098Z,55
2017-09-28T11:32:13.079Z,55
2017-09-28T11:33:22.735Z,55
2017-09-28T11:34:32.068Z,50
2017-09-28T11:35:41.084Z,45
2017-09-28T11:36:50.424Z,45
2017-09-28T11:38:00.080Z,45
2017-09-28T11:39:09.103Z,50
2017-09-28T11:40:18.117Z,55
2017-09-28T11:41:26.819Z,55
2017-09-28T11:42:36.155Z,55
2017-09-28T11:43:45.509Z,40
2017-09-28T11:44:54.201Z,35
2017-09-28T11:46:03.542Z,35
2017-09-28T11:47:12.238Z,40
2017-09-28T11:48:21.254Z,40
2017-09-28T11:49:30.593Z,35
2017-09-28T11:50:39.931Z,30
2017-09-28T11:51:48.948Z,35
2017-09-28T11:52:58.284Z,35
2017-09-28T11:54:07.298Z,35
2017-09-28T11:55:16.634Z,35
2017-09-28T11:56:25.652Z,35
2017-09-28T11:57:34.988Z,35
2017-09-28T11:58:44.648Z,35
2017-09-28T11:59:53.658Z,35
2017-09-28T12:01:02.353Z,35
2017-09-28T12:02:11.372Z,35
2017-09-28T12:03:20.393Z,40
2017-09-28T12:04:29.406Z,50
2017-09-28T12:05:39.390Z,50
2017-09-28T12:06:48.725Z,55
2017-09-28T12:07:57.743Z,55
2017-09-28T12:09:07.075Z,55
2017-09-28T12:10:15.773Z,45
2017-09-28T12:11:25.114Z,35
2017-09-28T12:12:33.807Z,30
2017-09-28T12:13:42.502Z,30
2017-09-28T12:14:51.524Z,25
2017-09-28T12:16:00.536Z,25
2017-09-28T12:17:09.229Z,25
2017-09-28T12:18:17.926Z,30
2017-09-28T12:19:27.259Z,30
2017-09-28T12:20:35.953Z,30
2017-09-28T12:21:45.287Z,30
2017-09-28T12:22:54.308Z,25
2017-09-28T12:24:03.648Z,25
2017-09-28T12:25:12.345Z,25
2017-09-28T12:26:22.000Z,30
2017-09-28T12:27:31.342Z,30
2017-09-28T12:28:40.362Z,30
2017-09-28T12:29:49.060Z,25
2017-09-28T12:30:57.757Z,25
2017-09-28T12:32:07.090Z,25
2017-09-28T12:33:16.115Z,25
2017-09-28T12:34:25.783Z,25
2017-09-28T12:35:34.805Z,25
2017-09-28T12:36:44.137Z,25
2017-09-28T12:37:53.473Z,20
2017-09-28T12:39:02.498Z,20
2017-09-28T12:40:11.196Z,20
2017-09-28T12:41:20.863Z,15
2017-09-28T12:42:29.878Z,20
2017-09-28T12:43:38.890Z,20
2017-09-28T12:44:48.220Z,20
2017-09-28T12:45:57.552Z,20
2017-09-28T12:47:06.247Z,20
2017-09-28T12:48:15.265Z,15
2017-09-28T12:49:24.307Z,15
2017-09-28T12:50:33.648Z,15
2017-09-28T12:51:42.663Z,15
2017-09-28T12:52:51.676Z,15
2017-09-28T12:54:00.371Z,15
2017-09-28T12:55:09.066Z,15
2017-09-28T12:56:18.400Z,15
2017-09-28T12:57:27.735Z,15
2017-09-28T12:58:37.385Z,15
2017-09-28T12:59:46.401Z,15
2017-09-28T13:00:55.414Z,10
2017-09-28T13:02:04.110Z,10
2017-09-28T13:03:14.130Z,10
2017-09-28T13:04:22.829Z,10
2017-09-28T13:05:32.491Z,10
2017-09-28T13:06:41.823Z,10
2017-09-28T13:07:51.161Z,10
2017-09-28T13:08:59.857Z,10
2017-09-28T13:10:09.201Z,10
2017-09-28T13:11:17.899Z,10
2017-09-28T13:12:26.917Z,10
2017-09-28T13:13:35.934Z,10
2017-09-28T13:14:45.266Z,10
2017-09-28T13:15:54.609Z,10
2017-09-28T13:17:03.305Z,10
2017-09-28T13:18:12.006Z,10
2017-09-28T13:19:21.341Z,10
2017-09-28T13:20:30.042Z,10
2017-09-28T13:21:39.382Z,15
2017-09-28T13:22:48.793Z,20
2017-09-28T13:23:58.445Z,20
2017-09-28T13:25:07.460Z,20
2017-09-28T13:26:16.476Z,20
2017-09-28T13:27:25.497Z,20
2017-09-28T13:28:34.527Z,20
2017-09-28T13:29:43.532Z,20
2017-09-28T13:30:52.867Z,20
2017-09-28T13:32:02.526Z,15
2017-09-28T13:33:12.180Z,15
2017-09-28T13:34:21.198Z,15
2017-09-28T13:35:30.212Z,15
2017-09-28T13:36:39.231Z,15
2017-09-28T13:37:48.247Z,15
2017-09-28T13:38:56.946Z,20
2017-09-28T13:40:06.286Z,20
2017-09-28T13:41:15.299Z,20
2017-09-28T13:42:24.322Z,20
2017-09-28T13:43:33.018Z,20
2017-09-28T13:44:42.678Z,20
2017-09-28T13:45:52.009Z,20
2017-09-28T13:47:00.703Z,25
2017-09-28T13:48:09.718Z,25
2017-09-28T13:49:18.415Z,25
2017-09-28T13:50:27.431Z,25
2017-09-28T13:51:36.768Z,25
2017-09-28T13:52:45.782Z,20
2017-09-28T13:53:54.482Z,20
2017-09-28T13:55:03.515Z,20
2017-09-28T13:56:12.529Z,20
2017-09-28T13:57:21.543Z,20
2017-09-28T13:58:30.241Z,20
2017-09-28T13:59:38.941Z,20
2017-09-28T14:00:48.596Z,25
2017-09-28T14:01:57.933Z,30
2017-09-28T14:03:06.955Z,25
2017-09-28T14:04:15.973Z,25
2017-09-28T14:05:24.989Z,25
2017-09-28T14:06:33.683Z,25
2017-09-28T14:07:42.378Z,25
2017-09-28T14:08:51.407Z,25
2017-09-28T14:10:00.101Z,30
2017-09-28T14:11:09.434Z,35
2017-09-28T14:12:19.548Z,35
2017-09-28T14:13:28.887Z,35
2017-09-28T14:14:38.225Z,30
2017-09-28T14:15:47.561Z,25
2017-09-28T14:16:56.262Z,25
2017-09-28T14:18:05.596Z,25
2017-09-28T14:19:14.611Z,20
2017-09-28T14:20:23.628Z,20
2017-09-28T14:21:32.646Z,20
2017-09-28T14:22:41.340Z,20
2017-09-28T14:23:50.682Z,20
2017-09-28T14:24:59.693Z,25
2017-09-28T14:26:08.706Z,25
2017-09-28T14:27:17.402Z,25
2017-09-28T14:28:26.101Z,30
2017-09-28T14:29:35.113Z,30
2017-09-28T14:30:43.808Z,30
2017-09-28T14:31:52.824Z,30
2017-09-28T14:33:01.518Z,30
2017-09-28T14:34:10.214Z,30
2017-09-28T14:35:18.912Z,30
2017-09-28T14:36:27.933Z,30
2017-09-28T14:37:36.620Z,30
2017-09-28T14:38:45.968Z,30
2017-09-28T14:39:55.330Z,25
2017-09-28T14:41:04.988Z,25
2017-09-28T14:42:14.656Z,25
2017-09-28T14:43:23.682Z,20
2017-09-28T14:44:32.706Z,25
2017-09-28T14:45:43.005Z,25
2017-09-28T14:46:52.351Z,25
2017-09-28T14:48:01.054Z,25
2017-09-28T14:49:10.391Z,25
2017-09-28T14:50:19.731Z,25
2017-09-28T14:51:28.429Z,25
2017-09-28T14:52:37.128Z,25
2017-09-28T14:53:46.468Z,25
2017-09-28T14:54:55.496Z,25
2017-09-28T14:56:04.512Z,25
2017-09-28T14:57:13.852Z,25
2017-09-28T14:58:23.190Z,25
2017-09-28T14:59:32.534Z,25
2017-09-28T15:00:41.870Z,25
2017-09-28T15:01:50.891Z,20
2017-09-28T15:02:59.906Z,20
2017-09-28T15:04:08.926Z,20
2017-09-28T15:05:18.268Z,20
2017-09-28T15:06:26.966Z,20
2017-09-28T15:07:35.670Z,20
2017-09-28T15:08:44.731Z,20
2017-09-28T15:09:53.749Z,20
2017-09-28T15:11:02.777Z,15
2017-09-28T15:12:12.117Z,20
2017-09-28T15:13:21.136Z,20
2017-09-28T15:14:30.468Z,20
2017-09-28T15:15:39.808Z,20
2017-09-28T15:16:49.467Z,20
2017-09-28T15:17:58.803Z,20
2017-09-28T15:19:07.826Z,20
2017-09-28T15:20:17.165Z,20
2017-09-28T15:21:25.858Z,20
2017-09-28T15:22:35.506Z,15
2017-09-28T15:25:26.591Z,15
2017-09-28T15:26:35.612Z,15
2017-09-28T15:27:45.271Z,15
2017-09-28T15:28:53.966Z,15
2017-09-28T15:30:02.664Z,15
2017-09-28T15:31:11.679Z,15
2017-09-28T15:32:20.373Z,20
2017-09-28T15:33:29.390Z,20
2017-09-28T15:34:38.731Z,20
2017-09-28T15:35:47.428Z,20
2017-09-28T15:36:56.451Z,15
2017-09-28T15:38:05.466Z,15
2017-09-28T15:39:14.158Z,15
2017-09-28T15:40:23.815Z,10
2017-09-28T15:41:33.156Z,10
2017-09-28T15:42:42.506Z,10
2017-09-28T15:43:51.524Z,10
2017-09-28T15:45:00.856Z,10
2017-09-28T15:46:09.552Z,5
2017-09-28T15:47:18.568Z,5
2017-09-28T15:48:27.585Z,5
2017-09-28T15:49:36.278Z,5
2017-09-28T15:50:45.297Z,5
2017-09-28T15:51:53.989Z,10
2017-09-28T15:53:02.683Z,10
2017-09-28T15:54:12.025Z,10
2017-09-28T15:55:21.042Z,10
2017-09-28T15:56:30.064Z,10
2017-09-28T15:57:39.724Z,10
2017-09-28T15:58:48.745Z,15
2017-09-28T15:59:58.410Z,10
2017-09-28T16:01:07.427Z,10
2017-09-28T16:02:16.765Z,10
2017-09-28T16:03:25.465Z,10
2017-09-28T16:04:34.486Z,10
2017-09-28T16:05:43.824Z,10
2017-09-28T16:06:52.848Z,5
2017-09-28T16:08:02.754Z,5
2017-09-28T16:09:11.448Z,5
2017-09-28T16:10:20.464Z,5
2017-09-28T16:11:29.478Z,5
2017-09-28T16:12:38.825Z,5
2017-09-28T16:13:47.527Z,5
2017-09-28T16:14:57.188Z,5
2017-09-28T16:16:06.200Z,5
2017-09-28T16:17:15.223Z,5
2017-09-28T16:18:24.243Z,5
2017-09-28T16:19:33.255Z,5
2017-09-28T16:20:42.279Z,5
2017-09-28T16:21:50.981Z,0
2017-09-28T16:23:00.322Z,0
2017-09-28T16:24:09.974Z,0
2017-09-28T16:25:18.669Z,0
2017-09-28T16:26:27.684Z,0
2017-09-28T16:27:37.027Z,0
2017-09-28T16:28:46.048Z,0
2017-09-28T16:29:55.062Z,0
2017-09-28T16:31:04.395Z,0
2017-09-28T16:32:13.411Z,0
2017-09-28T16:33:22.741Z,0
2017-09-28T16:34:32.093Z,0
2017-09-28T16:35:41.425Z,0
2017-09-28T16:36:50.445Z,0
2017-09-28T16:37:59.143Z,0
2017-09-28T16:39:08.802Z,0
2017-09-28T16:40:17.821Z,0
2017-09-28T16:41:27.157Z,0
2017-09-28T16:42:36.176Z,0
2017-09-28T16:43:45.194Z,0
2017-09-28T16:44:54.530Z,0
2017-09-28T16:46:03.545Z,0
2017-09-28T16:47:12.878Z,0
2017-09-28T16:48:22.530Z,0
2017-09-28T16:49:31.864Z,0
2017-09-28T16:50:40.891Z,0
2017-09-28T16:51:50.232Z,0
2017-09-28T16:52:59.245Z,0
2017-09-28T16:54:07.939Z,0
2017-09-28T16:55:16.957Z,0
2017-09-28T16:56:25.975Z,0
2017-09-28T16:57:35.956Z,0
2017-09-28T16:58:45.313Z,0
2017-09-28T16:59:54.010Z,0
2017-09-28T17:01:02.706Z,0
2017-09-28T17:02:12.360Z,0
2017-09-28T17:03:21.383Z,0
2017-09-28T17:04:30.078Z,0
2017-09-28T17:05:40.053Z,0
2017-09-28T17:06:48.751Z,0
2017-09-28T17:07:57.447Z,0
2017-09-28T17:09:06.465Z,0
2017-09-28T17:10:15.164Z,0
2017-09-28T17:11:24.820Z,0
2017-09-28T17:12:33.835Z,0
2017-09-28T17:13:42.851Z,0
2017-09-28T17:14:51.866Z,0
2017-09-28T17:16:00.568Z,0
2017-09-28T17:17:10.225Z,0
2017-09-28T17:18:19.242Z,0
2017-09-28T17:19:28.593Z,0
2017-09-28T17:20:37.595Z,0
2017-09-28T17:21:47.902Z,0
2017-09-28T17:22:57.240Z,0
2017-09-28T17:24:06.252Z,0
2017-09-28T17:25:15.906Z,0
2017-09-28T17:26:24.917Z,0
2017-09-28T17:27:33.936Z,0
2017-09-28T17:28:42.954Z,0
2017-09-28T17:29:51.972Z,0
2017-09-28T17:31:01.628Z,0
2017-09-28T17:32:10.322Z,0
2017-09-28T17:33:19.335Z,0
2017-09-28T17:34:28.028Z,0
2017-09-28T17:35:36.720Z,0
2017-09-28T17:36:46.056Z,0
2017-09-28T17:37:55.720Z,0
2017-09-28T17:39:05.373Z,0
2017-09-28T17:40:14.384Z,0
2017-09-28T17:41:23.397Z,0
2017-09-28T17:42:32.736Z,0
2017-09-28T17:43:42.074Z,0
2017-09-28T17:44:51.411Z,0
2017-09-28T17:46:00.113Z,0
2017-09-28T17:47:09.130Z,0
2017-09-28T17:48:18.143Z,0
2017-09-28T17:49:26.834Z,0
2017-09-28T17:50:36.168Z,0
2017-09-28T17:51:44.864Z,0
2017-09-28T17:52:53.905Z,0
2017-09-28T17:54:02.903Z,0
2017-09-28T17:55:11.920Z,0
2017-09-28T17:56:20.939Z,0
2017-09-28T17:57:29.961Z,0
2017-09-28T17:58:39.617Z,0
2017-09-28T17:59:48.637Z,0
2017-09-28T18:00:57.657Z,0
2017-09-28T18:02:07.013Z,0
2017-09-28T18:03:16.031Z,0
2017-09-28T18:04:25.694Z,0
2017-09-28T18:05:35.033Z,0
2017-09-28T18:06:44.369Z,0
2017-09-28T18:07:53.389Z,0
2017-09-28T18:09:02.409Z,0
2017-09-28T18:10:11.745Z,0
2017-09-28T18:11:20.443Z,0
2017-09-28T18:12:30.096Z,0
2017-09-28T18:13:39.429Z,0
2017-09-28T18:14:48.441Z,0